createdAt,value
2023-04-09T00:01:04.329Z,7.14
2023-04-09T00:03:31.861Z,7.05
2023-04-09T00:06:01.198Z,6.91
2023-04-09T00:08:28.583Z,6.79
2023-04-09T00:10:57.312Z,6.69
2023-04-09T00:13:35.373Z,6.55
2023-04-09T00:16:06.471Z,6.49
2023-04-09T00:18:33.789Z,6.47
2023-04-09T00:21:02.613Z,6.45
2023-04-09T00:23:29.949Z,6.41
2023-04-09T00:25:57.451Z,6.41
2023-04-09T00:28:24.787Z,6.35
2023-04-09T00:30:52.073Z,6.31
2023-04-09T00:33:19.586Z,6.26
2023-04-09T00:35:47.029Z,6.21
2023-04-09T00:38:16.484Z,6.19
2023-04-09T00:40:44.175Z,6.17
2023-04-09T00:43:12.172Z,6.18
2023-04-09T00:45:39.769Z,6.17
2023-04-09T00:48:07.504Z,6.23
2023-04-09T00:50:34.863Z,6.27
2023-04-09T00:53:02.163Z,6.33
2023-04-09T00:55:31.601Z,6.34
2023-04-09T00:57:58.891Z,6.36
2023-04-09T01:00:27.774Z,6.26
2023-04-09T01:02:57.732Z,6.15
2023-04-09T01:05:31.499Z,6.04
2023-04-09T01:08:05.388Z,5.95
2023-04-09T01:10:38.472Z,5.88
2023-04-09T01:13:12.750Z,5.79
2023-04-09T01:15:47.323Z,5.75
2023-04-09T01:18:22.806Z,5.71
2023-04-09T01:20:57.196Z,5.76
2023-04-09T01:23:35.532Z,5.77
2023-04-09T01:26:11.000Z,5.81
2023-04-09T01:28:50.906Z,5.81
2023-04-09T01:31:20.453Z,5.74
2023-04-09T01:33:48.106Z,5.83
2023-04-09T01:36:16.659Z,5.83
2023-04-09T01:38:45.918Z,5.84
2023-04-09T01:41:17.532Z,5.83
2023-04-09T01:43:48.476Z,5.83
2023-04-09T01:46:16.800Z,5.80
2023-04-09T01:48:44.230Z,5.78
2023-04-09T01:51:14.246Z,5.72
2023-04-09T01:53:42.339Z,5.68
2023-04-09T01:56:10.208Z,5.66
2023-04-09T01:58:37.750Z,5.56
2023-04-09T02:01:12.897Z,5.56
2023-04-09T02:03:45.417Z,5.50
2023-04-09T02:06:16.280Z,5.38
2023-04-09T02:08:46.561Z,5.38
2023-04-09T02:11:15.396Z,5.22
2023-04-09T02:13:44.401Z,5.31
2023-04-09T02:16:34.180Z,5.36
2023-04-09T02:19:01.565Z,5.34
2023-04-09T02:21:29.753Z,5.38
2023-04-09T02:23:57.058Z,5.37
2023-04-09T02:26:25.111Z,5.42
2023-04-09T02:28:52.473Z,5.43
2023-04-09T02:31:19.809Z,5.47
2023-04-09T02:33:48.604Z,5.41
2023-04-09T02:36:16.205Z,5.40
2023-04-09T02:38:43.774Z,5.33
2023-04-09T02:41:11.286Z,5.31
2023-04-09T02:43:38.602Z,5.30
2023-04-09T02:46:07.868Z,5.30
2023-04-09T02:48:36.057Z,5.32
2023-04-09T02:51:08.204Z,5.33
2023-04-09T02:53:35.692Z,5.33
2023-04-09T02:56:03.028Z,5.25
2023-04-09T02:58:30.327Z,5.21
2023-04-09T03:00:57.569Z,5.16
2023-04-09T03:03:25.064Z,5.12
2023-04-09T03:05:52.477Z,5.10
2023-04-09T03:08:21.188Z,5.08
2023-04-09T03:10:48.652Z,5.10
2023-04-09T03:13:16.160Z,5.12
2023-04-09T03:15:43.719Z,5.17
2023-04-09T03:18:10.993Z,5.23
2023-04-09T03:20:39.339Z,5.25
2023-04-09T03:23:09.235Z,5.24
2023-04-09T03:25:42.788Z,5.20
2023-04-09T03:28:16.417Z,5.23
2023-04-09T03:30:50.700Z,5.23
2023-04-09T03:33:19.716Z,5.22
2023-04-09T03:35:53.645Z,5.19
2023-04-09T03:38:33.743Z,5.21
2023-04-09T03:41:07.197Z,5.25
2023-04-09T03:43:34.756Z,5.20
2023-04-09T03:46:02.356Z,5.14
2023-04-09T03:48:30.479Z,5.09
2023-04-09T03:50:58.704Z,5.07
2023-04-09T03:53:34.337Z,5.07
2023-04-09T03:56:07.699Z,5.05
2023-04-09T03:58:36.423Z,5.02
2023-04-09T04:01:04.183Z,5.02
2023-04-09T04:03:50.874Z,5.01
2023-04-09T04:06:22.430Z,5.02
2023-04-09T04:09:01.723Z,5.08
2023-04-09T04:11:41.407Z,5.16
2023-04-09T04:14:08.969Z,5.20
2023-04-09T04:16:36.324Z,5.22
2023-04-09T04:19:06.304Z,5.25
2023-04-09T04:21:40.858Z,5.28
2023-04-09T04:24:08.310Z,5.30
2023-04-09T04:26:35.752Z,5.34
2023-04-09T04:29:05.164Z,5.40
2023-04-09T04:31:44.943Z,5.44
2023-04-09T04:34:13.539Z,5.49
2023-04-09T04:36:43.349Z,5.58
2023-04-09T04:39:10.657Z,5.63
2023-04-09T04:41:49.653Z,5.69
2023-04-09T04:44:23.878Z,5.73
2023-04-09T04:46:57.537Z,5.81
2023-04-09T04:49:24.912Z,5.92
2023-04-09T04:51:52.202Z,6.01
2023-04-09T04:54:19.779Z,6.04
2023-04-09T04:56:53.427Z,6.08
2023-04-09T04:59:42.517Z,6.05
2023-04-09T05:02:12.265Z,6.14
2023-04-09T05:04:51.788Z,6.20
2023-04-09T05:07:22.150Z,6.26
2023-04-09T05:09:53.477Z,6.35
2023-04-09T05:12:20.914Z,6.45
2023-04-09T05:14:53.238Z,6.48
2023-04-09T05:17:20.654Z,6.52
2023-04-09T05:19:51.795Z,6.58
2023-04-09T05:22:22.605Z,6.69
2023-04-09T05:24:50.013Z,6.87
2023-04-09T05:27:19.597Z,7.15
2023-04-09T05:29:49.373Z,7.40
2023-04-09T05:32:18.956Z,7.66
2023-04-09T05:34:46.932Z,7.85
2023-04-09T05:37:14.337Z,8.03
2023-04-09T05:39:46.085Z,8.18
2023-04-09T05:42:14.273Z,8.25
2023-04-09T05:44:52.399Z,8.34
2023-04-09T05:47:22.958Z,8.46
2023-04-09T05:50:01.951Z,8.54
2023-04-09T05:52:30.516Z,8.75
2023-04-09T05:54:58.356Z,9.06
2023-04-09T05:57:38.026Z,9.52
2023-04-09T06:00:06.784Z,9.94
2023-04-09T06:02:45.691Z,10.42
2023-04-09T06:05:13.226Z,10.82
2023-04-09T06:07:40.955Z,11.12
2023-04-09T06:10:09.307Z,11.29
2023-04-09T06:12:36.790Z,11.38
2023-04-09T06:15:05.015Z,11.31
2023-04-09T06:17:33.275Z,11.07
2023-04-09T06:20:02.120Z,10.86
2023-04-09T06:22:30.722Z,10.78
2023-04-09T06:24:58.038Z,10.70
2023-04-09T06:27:25.495Z,10.73
2023-04-09T06:29:53.040Z,10.86
2023-04-09T06:32:20.614Z,11.00
2023-04-09T06:34:48.501Z,11.08
2023-04-09T06:37:17.293Z,11.09
2023-04-09T06:39:50.676Z,11.03
2023-04-09T06:42:27.930Z,11.04
2023-04-09T06:45:17.319Z,11.13
2023-04-09T06:47:44.725Z,11.27
2023-04-09T06:50:14.407Z,11.37
2023-04-09T06:52:43.161Z,11.50
2023-04-09T06:55:11.636Z,11.63
2023-04-09T06:57:40.049Z,11.66
2023-04-09T07:00:08.665Z,11.78
2023-04-09T07:02:36.529Z,11.95
2023-04-09T07:05:04.496Z,12.20
2023-04-09T07:07:32.322Z,12.40
2023-04-09T07:10:01.858Z,12.66
2023-04-09T07:12:31.886Z,12.92
2023-04-09T07:14:59.528Z,13.14
2023-04-09T07:17:26.932Z,13.26
2023-04-09T07:19:54.633Z,13.40
2023-04-09T07:22:22.924Z,13.48
2023-04-09T07:24:54.435Z,13.37
2023-04-09T07:27:25.262Z,13.23
2023-04-09T07:29:55.180Z,13.24
2023-04-09T07:32:22.535Z,13.24
2023-04-09T07:34:51.660Z,13.06
2023-04-09T07:37:19.173Z,12.89
2023-04-09T07:39:46.892Z,12.76
2023-04-09T07:42:14.485Z,12.70
2023-04-09T07:44:44.030Z,12.65
2023-04-09T07:47:13.011Z,12.54
2023-04-09T07:49:40.497Z,12.38
2023-04-09T07:52:08.367Z,12.36
2023-04-09T07:54:35.962Z,12.35
2023-04-09T07:57:03.449Z,12.45
2023-04-09T07:59:31.785Z,12.59
2023-04-09T08:02:00.621Z,12.82
2023-04-09T08:04:28.414Z,12.97
2023-04-09T08:06:56.179Z,13.16
2023-04-09T08:09:23.408Z,13.29
2023-04-09T08:11:50.955Z,13.42
2023-04-09T08:14:18.766Z,13.44
2023-04-09T08:16:47.790Z,13.36
2023-04-09T08:19:17.948Z,13.27
2023-04-09T08:21:46.201Z,13.23
2023-04-09T08:24:13.645Z,13.23
2023-04-09T08:26:42.207Z,13.23
2023-04-09T08:29:11.752Z,13.24
2023-04-09T08:31:39.408Z,13.42
2023-04-09T08:34:07.393Z,13.58
2023-04-09T08:36:36.363Z,13.88
2023-04-09T08:39:04.098Z,14.03
2023-04-09T08:41:32.004Z,14.04
2023-04-09T08:43:59.936Z,13.99
2023-04-09T08:46:28.099Z,13.88
2023-04-09T08:48:56.333Z,13.68
2023-04-09T08:51:25.084Z,13.63
2023-04-09T08:53:57.391Z,13.58
2023-04-09T08:56:26.270Z,13.50
2023-04-09T08:58:54.150Z,13.51
2023-04-09T09:01:23.598Z,13.58
2023-04-09T09:03:59.212Z,13.64
2023-04-09T09:06:28.926Z,13.67
2023-04-09T09:09:06.278Z,13.75
2023-04-09T09:11:34.444Z,13.87
2023-04-09T09:14:03.658Z,13.93
2023-04-09T09:16:33.247Z,13.94
2023-04-09T09:19:01.311Z,13.96
2023-04-09T09:21:29.425Z,14.01
2023-04-09T09:23:57.649Z,14.00
2023-04-09T09:26:27.664Z,14.01
2023-04-09T09:28:56.203Z,13.98
2023-04-09T09:31:23.673Z,14.00
2023-04-09T09:33:51.825Z,14.11
2023-04-09T09:36:37.197Z,14.20
2023-04-09T09:39:05.435Z,14.28
2023-04-09T09:41:34.065Z,14.11
2023-04-09T09:44:01.647Z,14.03
2023-04-09T09:46:34.453Z,14.00
2023-04-09T09:49:01.797Z,14.01
2023-04-09T09:51:29.377Z,13.93
2023-04-09T09:53:57.723Z,13.96
2023-04-09T09:56:32.723Z,13.94
2023-04-09T09:59:07.855Z,14.00
2023-04-09T10:01:36.860Z,14.10
2023-04-09T10:04:07.323Z,14.16
2023-04-09T10:06:35.077Z,14.10
2023-04-09T10:09:06.884Z,14.07
2023-04-09T10:11:36.904Z,13.88
2023-04-09T10:14:05.911Z,13.77
2023-04-09T10:16:33.447Z,13.68
2023-04-09T10:19:02.232Z,13.81
2023-04-09T10:21:36.982Z,13.89
2023-04-09T10:24:07.984Z,13.95
2023-04-09T10:26:36.579Z,14.03
2023-04-09T10:29:11.734Z,14.10
2023-04-09T10:31:53.678Z,14.13
2023-04-09T10:34:23.626Z,14.19
2023-04-09T10:36:53.624Z,14.38
2023-04-09T10:39:21.131Z,14.74
2023-04-09T10:41:50.078Z,15.04
2023-04-09T10:44:22.672Z,15.25
2023-04-09T10:46:51.478Z,15.44
2023-04-09T10:49:20.395Z,15.59
2023-04-09T10:51:54.751Z,15.73
2023-04-09T10:54:48.398Z,16.03
2023-04-09T10:57:18.304Z,16.06
2023-04-09T10:59:48.399Z,16.08
2023-04-09T11:02:56.706Z,15.98
2023-04-09T11:05:30.859Z,15.90
2023-04-09T11:08:07.399Z,16.08
2023-04-09T11:10:35.269Z,16.22
2023-04-09T11:13:03.394Z,16.31
2023-04-09T11:15:35.376Z,16.39
2023-04-09T11:18:03.467Z,16.34
2023-04-09T11:20:31.385Z,16.19
2023-04-09T11:23:00.541Z,16.04
2023-04-09T11:25:29.903Z,15.93
2023-04-09T11:27:57.960Z,15.57
2023-04-09T11:30:25.374Z,15.26
2023-04-09T11:32:54.228Z,15.08
2023-04-09T11:35:22.740Z,15.13
2023-04-09T11:37:52.434Z,15.25
2023-04-09T11:40:21.578Z,15.34
2023-04-09T11:42:50.938Z,15.30
2023-04-09T11:45:19.796Z,15.26
2023-04-09T11:47:47.447Z,15.27
2023-04-09T11:50:16.834Z,15.35
2023-04-09T11:52:45.597Z,15.28
2023-04-09T11:55:22.982Z,15.37
2023-04-09T11:57:52.153Z,15.41
2023-04-09T12:00:20.404Z,15.19
2023-04-09T12:02:49.389Z,15.04
2023-04-09T12:05:24.869Z,15.00
2023-04-09T12:07:57.222Z,15.05
2023-04-09T12:10:28.293Z,15.11
2023-04-09T12:12:56.409Z,15.00
2023-04-09T12:15:25.495Z,14.97
2023-04-09T12:17:55.463Z,14.87
2023-04-09T12:20:32.432Z,14.85
2023-04-09T12:23:01.397Z,14.84
2023-04-09T12:25:29.032Z,14.94
2023-04-09T12:27:57.014Z,15.13
2023-04-09T12:30:24.570Z,15.20
2023-04-09T12:32:52.982Z,15.25
2023-04-09T12:35:21.367Z,15.39
2023-04-09T12:37:50.530Z,15.58
2023-04-09T12:40:20.725Z,15.75
2023-04-09T12:42:48.491Z,15.95
2023-04-09T12:45:17.679Z,16.24
2023-04-09T12:47:45.601Z,16.32
2023-04-09T12:50:15.100Z,16.40
2023-04-09T12:52:43.167Z,16.61
2023-04-09T12:55:13.136Z,16.71
2023-04-09T12:57:47.354Z,16.91
2023-04-09T13:00:16.047Z,16.84
2023-04-09T13:02:43.494Z,16.67
2023-04-09T13:05:11.110Z,16.52
2023-04-09T13:07:39.080Z,16.20
2023-04-09T13:10:08.486Z,16.01
2023-04-09T13:12:37.517Z,15.90
2023-04-09T13:15:05.934Z,15.89
2023-04-09T13:17:33.280Z,15.77
2023-04-09T13:20:01.650Z,15.66
2023-04-09T13:22:31.115Z,15.53
2023-04-09T13:24:58.600Z,15.52
2023-04-09T13:27:26.045Z,15.44
2023-04-09T13:29:54.866Z,15.29
2023-04-09T13:32:23.461Z,15.17
2023-04-09T13:34:51.381Z,15.11
2023-04-09T13:37:18.628Z,15.10
2023-04-09T13:39:46.692Z,15.15
2023-04-09T13:42:14.532Z,15.14
2023-04-09T13:44:44.988Z,15.13
2023-04-09T13:47:16.061Z,15.14
2023-04-09T13:49:43.886Z,15.17
2023-04-09T13:52:11.942Z,15.08
2023-04-09T13:54:39.332Z,14.96
2023-04-09T13:57:06.627Z,14.88
2023-04-09T13:59:33.954Z,14.90
2023-04-09T14:02:01.459Z,14.94
2023-04-09T14:04:30.575Z,14.92
2023-04-09T14:06:57.924Z,14.89
2023-04-09T14:09:25.278Z,14.87
2023-04-09T14:11:56.203Z,14.85
2023-04-09T14:14:23.472Z,14.86
2023-04-09T14:16:50.710Z,14.79
2023-04-09T14:19:18.123Z,14.78
2023-04-09T14:21:46.773Z,14.74
2023-04-09T14:24:13.971Z,14.68
2023-04-09T14:26:41.384Z,14.69
2023-04-09T14:29:08.590Z,14.69
2023-04-09T14:31:36.017Z,14.72
2023-04-09T14:34:03.558Z,14.69
2023-04-09T14:36:31.800Z,14.68
2023-04-09T14:39:00.997Z,14.70
2023-04-09T14:41:28.585Z,14.77
2023-04-09T14:43:55.816Z,14.80
2023-04-09T14:46:23.208Z,14.83
2023-04-09T14:48:51.053Z,14.81
2023-04-09T14:51:18.554Z,14.73
2023-04-09T14:53:45.871Z,14.72
2023-04-09T14:56:14.570Z,14.62
2023-04-09T14:58:41.992Z,14.53
2023-04-09T15:01:09.334Z,14.55
2023-04-09T15:03:36.919Z,14.55
2023-04-09T15:06:04.765Z,14.52
2023-04-09T15:08:32.055Z,14.57
2023-04-09T15:10:59.432Z,14.55
2023-04-09T15:13:28.199Z,14.59
2023-04-09T15:15:55.865Z,14.55
2023-04-09T15:18:23.177Z,14.46
2023-04-09T15:20:51.387Z,14.27
2023-04-09T15:23:18.553Z,14.06
2023-04-09T15:25:46.125Z,13.95
2023-04-09T15:28:14.635Z,13.92
2023-04-09T15:30:43.917Z,13.88
2023-04-09T15:33:12.380Z,13.87
2023-04-09T15:35:39.873Z,13.90
2023-04-09T15:38:07.364Z,13.95
2023-04-09T15:40:34.838Z,13.96
2023-04-09T15:43:02.230Z,13.97
2023-04-09T15:45:29.768Z,13.88
2023-04-09T15:47:58.605Z,13.72
2023-04-09T15:50:26.250Z,13.59
2023-04-09T15:52:55.203Z,13.53
2023-04-09T15:55:23.582Z,13.40
2023-04-09T15:57:50.738Z,13.24
2023-04-09T16:00:21.084Z,13.13
2023-04-09T16:02:48.440Z,13.08
2023-04-09T16:05:17.178Z,13.00
2023-04-09T16:07:44.667Z,12.87
2023-04-09T16:10:12.180Z,12.78
2023-04-09T16:12:39.690Z,12.69
2023-04-09T16:15:08.250Z,12.62
2023-04-09T16:17:40.987Z,12.53
2023-04-09T16:20:09.261Z,12.52
2023-04-09T16:22:38.417Z,12.48
2023-04-09T16:25:06.683Z,12.41
2023-04-09T16:27:34.055Z,12.41
2023-04-09T16:30:01.953Z,12.36
2023-04-09T16:32:31.231Z,12.30
2023-04-09T16:35:00.831Z,12.26
2023-04-09T16:37:29.401Z,12.17
2023-04-09T16:39:58.258Z,12.24
2023-04-09T16:42:27.496Z,12.20
2023-04-09T16:44:54.741Z,12.17
2023-04-09T16:47:22.052Z,12.15
2023-04-09T16:49:49.477Z,12.14
2023-04-09T16:52:16.930Z,12.11
2023-04-09T16:54:44.166Z,12.11
2023-04-09T16:57:12.862Z,12.10
2023-04-09T16:59:42.613Z,12.09
2023-04-09T17:02:10.095Z,12.01
2023-04-09T17:04:38.304Z,11.91
2023-04-09T17:07:05.643Z,11.82
2023-04-09T17:09:33.067Z,11.79
2023-04-09T17:12:01.133Z,11.78
2023-04-09T17:14:29.961Z,11.76
2023-04-09T17:16:57.482Z,11.79
2023-04-09T17:19:25.156Z,11.77
2023-04-09T17:21:52.699Z,11.76
2023-04-09T17:24:19.854Z,11.73
2023-04-09T17:26:47.110Z,11.72
2023-04-09T17:29:14.314Z,11.66
2023-04-09T17:31:43.152Z,11.64
2023-04-09T17:34:11.736Z,11.70
2023-04-09T17:36:39.079Z,11.73
2023-04-09T17:39:06.544Z,11.70
2023-04-09T17:41:33.846Z,11.56
2023-04-09T17:44:01.229Z,11.43
2023-04-09T17:46:29.060Z,11.26
2023-04-09T17:48:57.668Z,11.24
2023-04-09T17:51:24.865Z,11.20
2023-04-09T17:53:53.880Z,11.21
2023-04-09T17:56:22.854Z,11.21
2023-04-09T17:58:50.226Z,11.20
2023-04-09T18:01:17.615Z,11.16
2023-04-09T18:03:48.664Z,11.13
2023-04-09T18:06:18.011Z,11.10
2023-04-09T18:08:45.259Z,11.09
2023-04-09T18:11:15.555Z,11.05
2023-04-09T18:13:42.837Z,11.02
2023-04-09T18:16:10.774Z,10.98
2023-04-09T18:18:38.557Z,11.01
2023-04-09T18:21:06.483Z,11.01
2023-04-09T18:23:35.493Z,10.99
2023-04-09T18:26:03.124Z,10.96
2023-04-09T18:28:30.788Z,10.95
2023-04-09T18:30:58.904Z,10.81
2023-04-09T18:33:27.170Z,10.79
2023-04-09T18:35:54.589Z,10.74
2023-04-09T18:38:21.930Z,10.72
2023-04-09T18:40:51.104Z,10.69
2023-04-09T18:43:18.641Z,10.68
2023-04-09T18:45:46.003Z,10.70
2023-04-09T18:48:13.320Z,10.71
2023-04-09T18:50:40.659Z,10.69
2023-04-09T18:53:08.028Z,10.72
2023-04-09T18:55:38.405Z,10.73
2023-04-09T18:58:13.067Z,10.71
2023-04-09T19:00:40.614Z,10.68
2023-04-09T19:03:08.821Z,10.61
2023-04-09T19:05:36.452Z,10.59
2023-04-09T19:08:06.906Z,10.54
2023-04-09T19:10:34.195Z,10.55
2023-04-09T19:13:01.554Z,10.55
2023-04-09T19:15:30.598Z,10.51
2023-04-09T19:17:58.060Z,10.52
2023-04-09T19:20:25.539Z,10.47
2023-04-09T19:22:54.630Z,10.46
2023-04-09T19:25:23.017Z,10.43
2023-04-09T19:27:50.533Z,10.30
2023-04-09T19:30:17.964Z,10.34
2023-04-09T19:32:46.844Z,10.30
2023-04-09T19:35:14.122Z,10.26
2023-04-09T19:37:45.035Z,10.22
2023-04-09T19:40:12.660Z,10.13
2023-04-09T19:42:40.131Z,9.98
2023-04-09T19:45:08.815Z,9.81
2023-04-09T19:47:38.221Z,9.66
2023-04-09T19:50:07.741Z,9.51
2023-04-09T19:52:35.016Z,9.48
2023-04-09T19:55:03.086Z,9.45
2023-04-09T19:57:31.930Z,9.48
2023-04-09T19:59:59.243Z,9.54
2023-04-09T20:02:26.596Z,9.59
2023-04-09T20:04:54.653Z,9.59
2023-04-09T20:07:23.505Z,9.59
2023-04-09T20:09:50.990Z,9.54
2023-04-09T20:12:21.140Z,9.47
2023-04-09T20:14:50.095Z,9.38
2023-04-09T20:17:19.957Z,9.36
2023-04-09T20:19:47.680Z,9.32
2023-04-09T20:22:15.143Z,9.32
2023-04-09T20:24:44.054Z,9.30
2023-04-09T20:27:11.449Z,9.25
2023-04-09T20:29:38.984Z,9.12
2023-04-09T20:32:06.635Z,9.00
2023-04-09T20:34:34.200Z,8.89
2023-04-09T20:37:01.837Z,8.73
2023-04-09T20:39:30.612Z,8.61
2023-04-09T20:41:59.306Z,8.51
2023-04-09T20:44:27.759Z,8.42
2023-04-09T20:46:55.585Z,8.39
2023-04-09T20:49:22.825Z,8.40
2023-04-09T20:51:50.195Z,8.44
2023-04-09T20:54:18.146Z,8.48
2023-04-09T20:56:45.563Z,8.49
2023-04-09T20:59:15.680Z,8.43
2023-04-09T21:01:43.225Z,8.38
2023-04-09T21:04:12.084Z,8.32
2023-04-09T21:06:40.466Z,8.27
2023-04-09T21:09:08.102Z,8.25
2023-04-09T21:11:35.409Z,8.28
2023-04-09T21:14:03.166Z,8.25
2023-04-09T21:16:31.896Z,8.27
2023-04-09T21:18:59.324Z,8.18
2023-04-09T21:21:28.590Z,8.14
2023-04-09T21:23:56.111Z,8.10
2023-04-09T21:26:25.104Z,8.08
2023-04-09T21:28:52.776Z,8.05
2023-04-09T21:31:21.208Z,8.06
2023-04-09T21:33:50.154Z,8.10
2023-04-09T21:36:17.624Z,8.16
2023-04-09T21:38:44.901Z,8.19
2023-04-09T21:41:12.389Z,8.24
2023-04-09T21:43:39.955Z,8.27
2023-04-09T21:46:07.787Z,8.31
2023-04-09T21:48:35.206Z,8.29
2023-04-09T21:51:04.182Z,8.19
2023-04-09T21:53:31.677Z,8.13
2023-04-09T21:55:59.006Z,8.13
2023-04-09T21:58:26.303Z,8.10
2023-04-09T22:00:53.577Z,8.12
2023-04-09T22:03:21.276Z,8.15
2023-04-09T22:05:48.874Z,8.15
2023-04-09T22:08:18.719Z,8.16
2023-04-09T22:10:46.511Z,8.18
2023-04-09T22:13:13.779Z,8.21
2023-04-09T22:15:41.972Z,8.22
2023-04-09T22:18:09.241Z,8.22
2023-04-09T22:20:36.976Z,8.30
2023-04-09T22:23:04.365Z,8.30
2023-04-09T22:25:35.221Z,8.29
2023-04-09T22:28:02.747Z,8.29
2023-04-09T22:30:30.231Z,8.25
2023-04-09T22:32:57.808Z,8.29
2023-04-09T22:35:25.212Z,8.29
2023-04-09T22:37:52.936Z,8.33
2023-04-09T22:40:20.233Z,8.35
2023-04-09T22:42:49.143Z,8.34
2023-04-09T22:45:16.415Z,8.34
2023-04-09T22:47:43.979Z,8.30
2023-04-09T22:50:13.587Z,8.26
2023-04-09T22:52:41.032Z,8.23
2023-04-09T22:55:10.279Z,8.20
2023-04-09T22:57:38.512Z,8.19
2023-04-09T23:00:09.196Z,8.16
2023-04-09T23:02:37.156Z,8.18
2023-04-09T23:05:05.286Z,8.16
2023-04-09T23:07:32.708Z,8.16
2023-04-09T23:10:00.612Z,8.15
2023-04-09T23:12:27.931Z,8.15
2023-04-09T23:14:55.254Z,8.14
2023-04-09T23:17:24.660Z,8.16
2023-04-09T23:19:54.718Z,8.17
2023-04-09T23:22:22.183Z,8.18
2023-04-09T23:24:49.620Z,8.22
2023-04-09T23:27:16.990Z,8.23
2023-04-09T23:29:44.417Z,8.27
2023-04-09T23:32:11.629Z,8.29
2023-04-09T23:34:40.357Z,8.28
2023-04-09T23:37:08.164Z,8.25
2023-04-09T23:39:35.489Z,8.22
2023-04-09T23:42:03.218Z,8.16
2023-04-09T23:44:30.780Z,8.15
2023-04-09T23:46:59.467Z,8.18
2023-04-09T23:49:27.488Z,8.19
2023-04-09T23:51:56.128Z,8.22
2023-04-09T23:54:23.683Z,8.20
2023-04-09T23:56:50.966Z,8.25
2023-04-09T23:59:18.409Z,8.31
